createdAt,value
2022-12-23T00:00:21.318Z,9.2
2022-12-23T00:01:21.407Z,9.2
2022-12-23T00:02:21.415Z,9.2
2022-12-23T00:03:21.451Z,9.3
2022-12-23T00:04:21.336Z,9.3
2022-12-23T00:05:21.332Z,9.3
2022-12-23T00:06:21.317Z,9.3
2022-12-23T00:07:21.571Z,9.3
2022-12-23T00:08:21.458Z,9.3
2022-12-23T00:09:21.342Z,9.3
2022-12-23T00:10:21.597Z,9.3
2022-12-23T00:11:21.380Z,9.3
2022-12-23T00:12:21.595Z,9.3
2022-12-23T00:13:21.864Z,9.4
2022-12-23T00:14:22.183Z,9.4
2022-12-23T00:15:21.324Z,9.4
2022-12-23T00:16:21.382Z,9.3
2022-12-23T00:17:23.053Z,9.3
2022-12-23T00:18:21.447Z,9.3
2022-12-23T00:19:21.346Z,9.3
2022-12-23T00:20:21.590Z,9.3
2022-12-23T00:21:21.320Z,9.3
2022-12-23T00:22:21.320Z,9.3
2022-12-23T00:23:21.329Z,9.3
2022-12-23T00:24:21.325Z,9.3
2022-12-23T00:25:21.317Z,9.3
2022-12-23T00:26:21.333Z,9.3
2022-12-23T00:27:21.320Z,9.3
2022-12-23T00:28:21.323Z,9.3
2022-12-23T00:29:21.319Z,9.3
2022-12-23T00:30:21.357Z,9.3
2022-12-23T00:31:21.476Z,9.3
2022-12-23T00:32:21.321Z,9.4
2022-12-23T00:33:21.325Z,9.4
2022-12-23T00:34:21.322Z,9.4
2022-12-23T00:35:21.316Z,9.4
2022-12-23T00:36:21.374Z,9.4
2022-12-23T00:37:21.316Z,9.4
2022-12-23T00:38:21.327Z,9.4
2022-12-23T00:39:21.317Z,9.4
2022-12-23T00:40:21.356Z,9.4
2022-12-23T00:41:21.321Z,9.5
2022-12-23T00:42:21.313Z,9.5
2022-12-23T00:43:21.318Z,9.4
2022-12-23T00:44:21.329Z,9.5
2022-12-23T00:45:21.325Z,9.5
2022-12-23T00:46:21.403Z,9.5
2022-12-23T00:47:21.314Z,9.5
2022-12-23T00:48:21.317Z,9.5
2022-12-23T00:49:21.509Z,9.5
2022-12-23T00:50:21.857Z,9.5
2022-12-23T00:51:21.323Z,9.5
2022-12-23T00:52:21.328Z,9.5
2022-12-23T00:53:21.364Z,9.5
2022-12-23T00:54:21.325Z,9.5
2022-12-23T00:55:21.322Z,9.5
2022-12-23T00:56:21.321Z,9.5
2022-12-23T00:57:21.320Z,9.5
2022-12-23T00:58:21.340Z,9.5
2022-12-23T00:59:21.595Z,9.5
2022-12-23T01:00:21.339Z,9.5
2022-12-23T01:01:21.404Z,9.5
2022-12-23T01:02:21.380Z,9.5
2022-12-23T01:03:21.375Z,9.5
2022-12-23T01:04:21.331Z,9.5
2022-12-23T01:05:21.320Z,9.5
2022-12-23T01:06:21.324Z,9.5
2022-12-23T01:07:21.335Z,9.5
2022-12-23T01:08:21.336Z,9.5
2022-12-23T01:09:21.332Z,9.5
2022-12-23T01:10:21.326Z,9.5
2022-12-23T01:11:21.323Z,9.5
2022-12-23T01:12:21.344Z,9.5
2022-12-23T01:13:21.340Z,9.5
2022-12-23T01:14:21.318Z,9.5
2022-12-23T01:15:21.318Z,9.5
2022-12-23T01:16:21.358Z,9.5
2022-12-23T01:17:21.365Z,9.5
2022-12-23T01:18:21.338Z,9.5
2022-12-23T01:19:21.327Z,9.5
2022-12-23T01:20:21.319Z,9.5
2022-12-23T01:21:21.328Z,9.5
2022-12-23T01:22:21.323Z,9.5
2022-12-23T01:23:21.324Z,9.5
2022-12-23T01:24:21.323Z,9.5
2022-12-23T01:25:21.349Z,9.5
2022-12-23T01:26:21.502Z,9.5
2022-12-23T01:27:21.316Z,9.5
2022-12-23T01:28:21.324Z,9.5
2022-12-23T01:29:21.318Z,9.5
2022-12-23T01:30:21.340Z,9.5
2022-12-23T01:31:21.373Z,9.5
2022-12-23T01:32:21.317Z,9.5
2022-12-23T01:33:21.326Z,9.5
2022-12-23T01:34:21.315Z,9.5
2022-12-23T01:35:21.324Z,9.5
2022-12-23T01:36:21.317Z,9.5
2022-12-23T01:37:21.325Z,9.5
2022-12-23T01:38:21.325Z,9.5
2022-12-23T01:39:21.317Z,9.5
2022-12-23T01:40:21.321Z,9.5
2022-12-23T01:41:21.319Z,9.5
2022-12-23T01:42:21.317Z,9.5
2022-12-23T01:43:21.334Z,9.5
2022-12-23T01:44:21.323Z,9.6
2022-12-23T01:45:21.343Z,9.6
2022-12-23T01:46:21.358Z,9.6
2022-12-23T01:47:21.319Z,9.6
2022-12-23T01:48:21.321Z,9.6
2022-12-23T01:49:21.318Z,9.6
2022-12-23T01:50:21.326Z,9.6
2022-12-23T01:51:21.329Z,9.6
2022-12-23T01:52:21.319Z,9.6
2022-12-23T01:53:21.319Z,9.6
2022-12-23T01:54:21.320Z,9.7
2022-12-23T01:55:21.315Z,9.6
2022-12-23T01:56:21.316Z,9.7
2022-12-23T01:57:21.324Z,9.7
2022-12-23T01:58:21.340Z,9.7
2022-12-23T01:59:21.314Z,9.7
2022-12-23T02:00:21.319Z,9.7
2022-12-23T02:01:21.403Z,9.6
2022-12-23T02:02:21.548Z,9.6
2022-12-23T02:03:21.388Z,9.6
2022-12-23T02:04:21.323Z,9.6
2022-12-23T02:05:21.329Z,9.6
2022-12-23T02:06:21.670Z,9.6
2022-12-23T02:07:22.036Z,9.6
2022-12-23T02:08:22.318Z,9.6
2022-12-23T02:09:21.315Z,9.6
2022-12-23T02:10:21.549Z,9.6
2022-12-23T02:11:21.353Z,9.6
2022-12-23T02:12:21.315Z,9.6
2022-12-23T02:13:21.336Z,9.6
2022-12-23T02:14:21.323Z,9.6
2022-12-23T02:15:21.334Z,9.6
2022-12-23T02:16:21.368Z,9.6
2022-12-23T02:17:21.332Z,9.6
2022-12-23T02:18:21.330Z,9.6
2022-12-23T02:19:21.325Z,9.6
2022-12-23T02:20:21.335Z,9.6
2022-12-23T02:21:21.356Z,9.6
2022-12-23T02:22:21.324Z,9.6
2022-12-23T02:23:21.323Z,9.5
2022-12-23T02:24:21.324Z,9.5
2022-12-23T02:25:21.332Z,9.5
2022-12-23T02:26:21.343Z,9.5
2022-12-23T02:27:21.331Z,9.5
2022-12-23T02:28:21.356Z,9.5
2022-12-23T02:29:21.337Z,9.5
2022-12-23T02:30:21.342Z,9.5
2022-12-23T02:31:21.387Z,9.5
2022-12-23T02:32:21.343Z,9.5
2022-12-23T02:33:21.323Z,9.4
2022-12-23T02:34:21.333Z,9.4
2022-12-23T02:35:21.341Z,9.4
2022-12-23T02:36:21.324Z,9.4
2022-12-23T02:37:21.321Z,9.4
2022-12-23T02:38:21.323Z,9.4
2022-12-23T02:39:21.324Z,9.4
2022-12-23T02:40:21.325Z,9.4
2022-12-23T02:41:21.348Z,9.4
2022-12-23T02:42:21.321Z,9.3
2022-12-23T02:43:21.320Z,9.3
2022-12-23T02:44:21.320Z,9.3
2022-12-23T02:45:21.314Z,9.3
2022-12-23T02:46:21.345Z,9.2
2022-12-23T02:47:21.333Z,9.3
2022-12-23T02:48:21.324Z,9.3
2022-12-23T02:49:21.316Z,9.3
2022-12-23T02:50:21.331Z,9.2
2022-12-23T02:51:21.323Z,9.3
2022-12-23T02:52:21.327Z,9.3
2022-12-23T02:53:21.327Z,9.3
2022-12-23T02:54:21.318Z,9.3
2022-12-23T02:55:21.330Z,9.3
2022-12-23T02:56:21.326Z,9.3
2022-12-23T02:57:21.323Z,9.3
2022-12-23T02:58:21.334Z,9.3
2022-12-23T02:59:21.319Z,9.3
2022-12-23T03:00:21.324Z,9.3
2022-12-23T03:01:21.350Z,9.3
2022-12-23T03:02:21.426Z,9.3
2022-12-23T03:03:21.457Z,9.3
2022-12-23T03:04:21.317Z,9.3
2022-12-23T03:05:21.316Z,9.3
2022-12-23T03:06:21.323Z,9.3
2022-12-23T03:07:21.321Z,9.3
2022-12-23T03:08:21.315Z,9.4
2022-12-23T03:09:21.318Z,9.3
2022-12-23T03:10:21.320Z,9.4
2022-12-23T03:11:21.322Z,9.4
2022-12-23T03:12:21.339Z,9.4
2022-12-23T03:13:21.329Z,9.4
2022-12-23T03:14:21.324Z,9.3
2022-12-23T03:15:21.354Z,9.4
2022-12-23T03:16:21.365Z,9.4
2022-12-23T03:17:21.337Z,9.4
2022-12-23T03:18:21.321Z,9.4
2022-12-23T03:19:21.331Z,9.4
2022-12-23T03:20:21.322Z,9.4
2022-12-23T03:21:21.313Z,9.4
2022-12-23T03:22:21.351Z,9.3
2022-12-23T03:23:21.317Z,9.3
2022-12-23T03:24:21.320Z,9.3
2022-12-23T03:25:21.445Z,9.3
2022-12-23T03:26:21.320Z,9.3
2022-12-23T03:27:21.332Z,9.3
2022-12-23T03:28:21.317Z,9.3
2022-12-23T03:29:21.465Z,9.3
2022-12-23T03:30:21.332Z,9.3
2022-12-23T03:31:21.380Z,9.3
2022-12-23T03:32:21.341Z,9.2
2022-12-23T03:33:21.316Z,9.2
2022-12-23T03:34:21.324Z,9.2
2022-12-23T03:35:21.313Z,9.2
2022-12-23T03:36:21.321Z,9.2
2022-12-23T03:37:21.340Z,9.2
2022-12-23T03:38:21.319Z,9.2
2022-12-23T03:39:21.389Z,9.2
2022-12-23T03:40:21.602Z,9.2
2022-12-23T03:41:21.442Z,9.2
2022-12-23T03:42:21.822Z,9.2
2022-12-23T03:43:21.608Z,9.2
2022-12-23T03:44:21.324Z,9.2
2022-12-23T03:45:38.443Z,9.2
2022-12-23T03:46:21.626Z,9.2
2022-12-23T03:47:21.346Z,9.2
2022-12-23T03:48:21.607Z,9.3
2022-12-23T03:49:21.469Z,9.3
2022-12-23T03:50:21.316Z,9.3
2022-12-23T03:51:21.553Z,9.3
2022-12-23T03:52:21.780Z,9.3
2022-12-23T03:53:21.574Z,9.3
2022-12-23T03:54:21.336Z,9.3
2022-12-23T03:55:21.480Z,9.3
2022-12-23T03:56:21.335Z,9.3
2022-12-23T03:57:21.321Z,9.3
2022-12-23T03:58:21.318Z,9.3
2022-12-23T03:59:21.317Z,9.3
2022-12-23T04:00:21.315Z,9.3
2022-12-23T04:01:21.399Z,9.3
2022-12-23T04:02:21.634Z,9.3
2022-12-23T04:03:21.406Z,9.3
2022-12-23T04:04:21.380Z,9.3
2022-12-23T04:05:21.319Z,9.3
2022-12-23T04:06:21.354Z,9.3
2022-12-23T04:07:21.336Z,9.3
2022-12-23T04:08:21.318Z,9.3
2022-12-23T04:09:22.274Z,9.3
2022-12-23T04:10:21.322Z,9.4
2022-12-23T04:11:21.335Z,9.4
2022-12-23T04:12:21.315Z,9.3
2022-12-23T04:13:21.338Z,9.4
2022-12-23T04:14:21.321Z,9.4
2022-12-23T04:15:21.321Z,9.4
2022-12-23T04:16:21.372Z,9.3
2022-12-23T04:17:21.318Z,9.3
2022-12-23T04:18:21.322Z,9.3
2022-12-23T04:19:21.317Z,9.3
2022-12-23T04:20:21.315Z,9.3
2022-12-23T04:21:21.315Z,9.3
2022-12-23T04:22:21.318Z,9.3
2022-12-23T04:23:21.314Z,9.3
2022-12-23T04:24:21.707Z,9.3
2022-12-23T04:25:21.746Z,9.3
2022-12-23T04:26:21.313Z,9.3
2022-12-23T04:27:21.324Z,9.3
2022-12-23T04:28:21.339Z,9.3
2022-12-23T04:29:21.319Z,9.3
2022-12-23T04:30:21.316Z,9.2
2022-12-23T04:31:21.417Z,9.3
2022-12-23T04:32:21.319Z,9.3
2022-12-23T04:33:21.357Z,9.3
2022-12-23T04:34:21.320Z,9.3
2022-12-23T04:35:21.326Z,9.2
2022-12-23T04:36:21.349Z,9.2
2022-12-23T04:37:21.322Z,9.3
2022-12-23T04:38:21.328Z,9.3
2022-12-23T04:39:21.328Z,9.3
2022-12-23T04:40:21.324Z,9.3
2022-12-23T04:41:21.348Z,9.3
2022-12-23T04:42:21.317Z,9.2
2022-12-23T04:43:21.331Z,9.3
2022-12-23T04:44:21.330Z,9.3
2022-12-23T04:45:21.335Z,9.3
2022-12-23T04:46:21.357Z,9.3
2022-12-23T04:47:21.345Z,9.3
2022-12-23T04:48:21.319Z,9.3
2022-12-23T04:49:21.315Z,9.3
2022-12-23T04:50:21.322Z,9.3
2022-12-23T04:51:21.338Z,9.3
2022-12-23T04:52:21.336Z,9.3
2022-12-23T04:53:21.371Z,9.3
2022-12-23T04:54:21.324Z,9.3
2022-12-23T04:55:21.319Z,9.3
2022-12-23T04:56:21.331Z,9.3
2022-12-23T04:57:21.336Z,9.3
2022-12-23T04:58:21.343Z,9.3
2022-12-23T04:59:21.322Z,9.3
2022-12-23T05:00:21.318Z,9.3
2022-12-23T05:01:21.372Z,9.3
2022-12-23T05:02:21.445Z,9.3
2022-12-23T05:03:21.569Z,9.3
2022-12-23T05:04:21.383Z,9.3
2022-12-23T05:05:21.327Z,9.3
2022-12-23T05:06:21.339Z,9.3
2022-12-23T05:07:21.326Z,9.3
2022-12-23T05:08:21.326Z,9.3
2022-12-23T05:09:21.332Z,9.3
2022-12-23T05:10:21.356Z,9.3
2022-12-23T05:11:21.340Z,9.3
2022-12-23T05:12:21.330Z,9.3
2022-12-23T05:13:21.313Z,9.3
2022-12-23T05:14:21.321Z,9.3
2022-12-23T05:15:21.331Z,9.3
2022-12-23T05:16:21.364Z,9.3
2022-12-23T05:17:21.382Z,9.3
2022-12-23T05:18:21.316Z,9.3
2022-12-23T05:19:21.320Z,9.2
2022-12-23T05:20:21.340Z,9.3
2022-12-23T05:21:21.337Z,9.3
2022-12-23T05:22:21.346Z,9.2
2022-12-23T05:23:21.321Z,9.3
2022-12-23T05:24:21.317Z,9.3
2022-12-23T05:25:21.340Z,9.2
2022-12-23T05:26:21.326Z,9.2
2022-12-23T05:27:21.324Z,9.2
2022-12-23T05:28:21.316Z,9.3
2022-12-23T05:29:21.320Z,9.3
2022-12-23T05:30:21.342Z,9.2
2022-12-23T05:31:21.400Z,9.2
2022-12-23T05:32:21.321Z,9.3
2022-12-23T05:33:21.526Z,9.3
2022-12-23T05:34:21.957Z,9.2
2022-12-23T05:35:21.444Z,9.2
2022-12-23T05:36:21.352Z,9.2
2022-12-23T05:37:21.495Z,9.2
2022-12-23T05:38:21.764Z,9.3
2022-12-23T05:39:21.311Z,9.3
2022-12-23T05:40:23.531Z,9.3
2022-12-23T05:41:21.328Z,9.3
2022-12-23T05:42:21.486Z,9.3
2022-12-23T05:43:21.679Z,9.3
2022-12-23T05:44:21.441Z,9.3
2022-12-23T05:45:21.328Z,9.3
2022-12-23T05:46:26.111Z,9.3
2022-12-23T05:47:21.331Z,9.3
2022-12-23T05:48:21.322Z,9.3
2022-12-23T05:49:21.427Z,9.3
2022-12-23T05:50:21.324Z,9.3
2022-12-23T05:51:21.331Z,9.3
2022-12-23T05:52:21.315Z,9.3
2022-12-23T05:53:21.316Z,9.3
2022-12-23T05:54:21.320Z,9.3
2022-12-23T05:55:21.321Z,9.3
2022-12-23T05:56:21.316Z,9.3
2022-12-23T05:57:21.335Z,9.3
2022-12-23T05:58:21.313Z,9.3
2022-12-23T05:59:21.336Z,9.3
2022-12-23T06:00:21.325Z,9.3
2022-12-23T06:01:21.335Z,9.3
2022-12-23T06:02:21.495Z,9.3
2022-12-23T06:03:21.527Z,9.3
2022-12-23T06:04:21.351Z,9.3
2022-12-23T06:05:21.330Z,9.3
2022-12-23T06:06:21.331Z,9.3
2022-12-23T06:07:21.322Z,9.2
2022-12-23T06:08:21.317Z,9.2
2022-12-23T06:09:21.318Z,9.2
2022-12-23T06:10:21.320Z,9.2
2022-12-23T06:11:21.336Z,9.2
2022-12-23T06:12:21.325Z,9.2
2022-12-23T06:13:21.330Z,9.2
2022-12-23T06:14:25.259Z,9.2
2022-12-23T06:15:21.326Z,9.2
2022-12-23T06:16:21.384Z,9.2
2022-12-23T06:17:21.315Z,9.2
2022-12-23T06:18:21.322Z,9.2
2022-12-23T06:19:21.319Z,9.2
2022-12-23T06:20:21.400Z,9.2
2022-12-23T06:21:21.338Z,9.2
2022-12-23T06:22:21.320Z,9.2
2022-12-23T06:23:21.314Z,9.2
2022-12-23T06:24:21.319Z,9.2
2022-12-23T06:25:21.320Z,9.2
2022-12-23T06:26:21.359Z,9.2
2022-12-23T06:27:21.317Z,9.2
2022-12-23T06:28:21.351Z,9.2
2022-12-23T06:29:21.326Z,9.2
2022-12-23T06:30:21.322Z,9.2
2022-12-23T06:31:21.498Z,9.2
2022-12-23T06:32:21.320Z,9.2
2022-12-23T06:33:21.316Z,9.2
2022-12-23T06:34:21.321Z,9.2
2022-12-23T06:35:21.320Z,9.2
2022-12-23T06:36:21.363Z,9.2
2022-12-23T06:37:21.314Z,9.2
2022-12-23T06:38:21.317Z,9.2
2022-12-23T06:39:21.317Z,9.2
2022-12-23T06:40:21.320Z,9.2
2022-12-23T06:41:21.320Z,9.2
2022-12-23T06:42:21.320Z,9.2
2022-12-23T06:43:21.340Z,9.2
2022-12-23T06:44:21.326Z,9.2
2022-12-23T06:45:21.321Z,9.2
2022-12-23T06:46:21.366Z,9.2
2022-12-23T06:47:21.316Z,9.2
2022-12-23T06:48:21.320Z,9.2
2022-12-23T06:49:21.327Z,9.2
2022-12-23T06:50:21.321Z,9.2
2022-12-23T06:51:21.321Z,9.2
2022-12-23T06:52:21.318Z,9.2
2022-12-23T06:53:21.324Z,9.2
2022-12-23T06:54:21.319Z,9.2
2022-12-23T06:55:21.318Z,9.2
2022-12-23T06:56:21.342Z,9.2
2022-12-23T06:57:21.323Z,9.2
2022-12-23T06:58:21.321Z,9.1
2022-12-23T06:59:21.328Z,9.1
2022-12-23T07:00:21.366Z,9.1
2022-12-23T07:01:21.631Z,9.1
2022-12-23T07:02:21.384Z,9.1
2022-12-23T07:03:21.348Z,9.1
2022-12-23T07:04:21.324Z,9.1
2022-12-23T07:05:21.322Z,9.1
2022-12-23T07:06:21.343Z,9.1
2022-12-23T07:07:21.316Z,9.1
2022-12-23T07:08:21.326Z,9.1
2022-12-23T07:09:21.319Z,9.1
2022-12-23T07:10:21.321Z,9.1
2022-12-23T07:11:21.346Z,9.1
2022-12-23T07:12:21.320Z,9
2022-12-23T07:13:21.433Z,9.1
2022-12-23T07:14:21.318Z,9.1
2022-12-23T07:15:21.327Z,9
2022-12-23T07:16:21.365Z,9
2022-12-23T07:17:21.323Z,9.1
2022-12-23T07:18:21.317Z,9
2022-12-23T07:19:21.315Z,9
2022-12-23T07:20:21.315Z,9.1
2022-12-23T07:21:26.664Z,9
2022-12-23T07:22:21.326Z,9
2022-12-23T07:23:21.320Z,9.1
2022-12-23T07:24:21.335Z,9
2022-12-23T07:25:21.319Z,9.1
2022-12-23T07:26:21.462Z,9
2022-12-23T07:27:21.318Z,9
2022-12-23T07:28:21.499Z,9.1
2022-12-23T07:29:21.319Z,9
2022-12-23T07:30:21.573Z,9
2022-12-23T07:31:21.430Z,9
2022-12-23T07:32:21.318Z,9
2022-12-23T07:33:21.318Z,9
2022-12-23T07:34:21.351Z,9
2022-12-23T07:35:21.325Z,9
2022-12-23T07:36:21.364Z,9
2022-12-23T07:37:21.329Z,9
2022-12-23T07:38:21.321Z,9
2022-12-23T07:39:21.344Z,9.1
2022-12-23T07:40:21.325Z,9.1
2022-12-23T07:41:21.331Z,9.1
2022-12-23T07:42:43.906Z,9
2022-12-23T07:43:21.321Z,9.1
2022-12-23T07:44:21.328Z,9.1
2022-12-23T07:45:21.316Z,9.1
2022-12-23T07:46:21.385Z,9.1
2022-12-23T07:47:21.321Z,9.1
2022-12-23T07:48:21.312Z,9.1
2022-12-23T07:49:21.324Z,9.1
2022-12-23T07:50:21.316Z,9.1
2022-12-23T07:51:21.318Z,9.1
2022-12-23T07:52:21.318Z,9.1
2022-12-23T07:53:21.351Z,9.1
2022-12-23T07:54:21.329Z,9.1
2022-12-23T07:55:21.327Z,9.1
2022-12-23T07:56:21.315Z,9.1
2022-12-23T07:57:21.316Z,9.1
2022-12-23T07:58:21.332Z,9.1
2022-12-23T07:59:21.323Z,9.1
2022-12-23T08:00:21.573Z,9.1
2022-12-23T08:01:21.940Z,9.1
2022-12-23T08:02:21.457Z,9.2
2022-12-23T08:03:21.377Z,9.2
2022-12-23T08:04:21.358Z,9.1
2022-12-23T08:05:21.405Z,9.2
2022-12-23T08:06:21.323Z,9.2
2022-12-23T08:07:21.467Z,9.2
2022-12-23T08:08:21.693Z,9.2
2022-12-23T08:09:21.587Z,9.2
2022-12-23T08:10:21.527Z,9.2
2022-12-23T08:11:21.380Z,9.2
2022-12-23T08:12:21.577Z,9.2
2022-12-23T08:13:21.451Z,9.2
2022-12-23T08:14:21.316Z,9.2
2022-12-23T08:15:21.489Z,9.2
2022-12-23T08:16:21.324Z,9.2
2022-12-23T08:17:21.461Z,9.2
2022-12-23T08:18:21.332Z,9.2
2022-12-23T08:19:21.322Z,9.2
2022-12-23T08:20:21.347Z,9.3
2022-12-23T08:21:21.326Z,9.3
2022-12-23T08:22:21.437Z,9.3
2022-12-23T08:23:24.645Z,9.4
2022-12-23T08:24:21.314Z,9.4
2022-12-23T08:25:21.352Z,9.4
2022-12-23T08:26:21.323Z,9.4
2022-12-23T08:27:21.316Z,9.4
2022-12-23T08:28:21.325Z,9.4
2022-12-23T08:29:21.322Z,9.4
2022-12-23T08:30:21.394Z,9.3
2022-12-23T08:31:21.643Z,9.3
2022-12-23T08:32:21.321Z,9.3
2022-12-23T08:33:21.319Z,9.3
2022-12-23T08:34:21.321Z,9.3
2022-12-23T08:35:21.350Z,9.3
2022-12-23T08:36:23.231Z,9.3
2022-12-23T08:37:21.314Z,9.3
2022-12-23T08:38:21.321Z,9.3
2022-12-23T08:39:21.318Z,9.3
2022-12-23T08:40:21.329Z,9.3
2022-12-23T08:41:21.318Z,9.3
2022-12-23T08:42:21.312Z,9.3
2022-12-23T08:43:21.316Z,9.3
2022-12-23T08:44:21.325Z,9.3
2022-12-23T08:45:21.324Z,9.3
2022-12-23T08:46:21.389Z,9.3
2022-12-23T08:47:21.323Z,9.3
2022-12-23T08:48:21.319Z,9.3
2022-12-23T08:49:21.326Z,9.3
2022-12-23T08:50:21.319Z,9.3
2022-12-23T08:51:21.413Z,9.3
2022-12-23T08:52:21.323Z,9.3
2022-12-23T08:53:21.327Z,9.3
2022-12-23T08:54:21.323Z,9.3
2022-12-23T08:55:21.319Z,9.3
2022-12-23T08:56:21.333Z,9.3
2022-12-23T08:57:21.319Z,9.3
2022-12-23T08:58:21.328Z,9.3
2022-12-23T08:59:21.330Z,9.3
2022-12-23T09:00:21.329Z,9.3
2022-12-23T09:01:21.386Z,9.3
2022-12-23T09:02:21.448Z,9.3
2022-12-23T09:03:21.445Z,9.3
2022-12-23T09:04:21.320Z,9.3
2022-12-23T09:05:21.523Z,9.3
2022-12-23T09:06:26.711Z,9.3
2022-12-23T09:07:21.324Z,9.2
2022-12-23T09:08:21.318Z,9.2
2022-12-23T09:09:21.313Z,9.2
2022-12-23T09:10:21.325Z,9.2
2022-12-23T09:11:21.331Z,9.3
2022-12-23T09:12:21.320Z,9.2
2022-12-23T09:13:27.987Z,9.3
2022-12-23T09:14:21.314Z,9.3
2022-12-23T09:15:21.326Z,9.3
2022-12-23T09:16:21.476Z,9.3
2022-12-23T09:17:21.657Z,9.3
2022-12-23T09:18:21.381Z,9.3
2022-12-23T09:19:21.588Z,9.3
2022-12-23T09:20:21.425Z,9.3
2022-12-23T09:21:21.317Z,9.3
2022-12-23T09:22:21.313Z,9.3
2022-12-23T09:23:21.355Z,9.3
2022-12-23T09:24:21.326Z,9.3
2022-12-23T09:25:21.327Z,9.3
2022-12-23T09:26:21.316Z,9.3
2022-12-23T09:27:21.319Z,9.3
2022-12-23T09:28:21.343Z,9.3
2022-12-23T09:29:21.313Z,9.3
2022-12-23T09:30:21.314Z,9.4
2022-12-23T09:31:21.415Z,9.4
2022-12-23T09:32:21.327Z,9.4
2022-12-23T09:33:21.337Z,9.4
2022-12-23T09:34:21.396Z,9.4
2022-12-23T09:35:21.315Z,9.4
2022-12-23T09:36:21.324Z,9.4
2022-12-23T09:37:21.331Z,9.4
2022-12-23T09:38:21.313Z,9.4
2022-12-23T09:39:21.313Z,9.4
2022-12-23T09:40:21.412Z,9.4
2022-12-23T09:41:21.319Z,9.5
2022-12-23T09:42:21.319Z,9.5
2022-12-23T09:43:21.318Z,9.5
2022-12-23T09:44:21.329Z,9.4
2022-12-23T09:45:21.319Z,9.5
2022-12-23T09:46:21.363Z,9.4
2022-12-23T09:47:21.335Z,9.4
2022-12-23T09:48:21.319Z,9.5
2022-12-23T09:49:21.320Z,9.5
2022-12-23T09:50:21.384Z,9.5
2022-12-23T09:51:21.325Z,9.5
2022-12-23T09:52:21.321Z,9.5
2022-12-23T09:53:21.318Z,9.5
2022-12-23T09:54:21.326Z,9.5
2022-12-23T09:55:21.320Z,9.5
2022-12-23T09:56:21.344Z,9.5
2022-12-23T09:57:21.318Z,9.5
2022-12-23T09:58:21.315Z,9.5
2022-12-23T09:59:21.321Z,9.5
2022-12-23T10:00:21.316Z,9.5
2022-12-23T10:01:21.351Z,9.5
2022-12-23T10:02:21.474Z,9.5
2022-12-23T10:03:21.735Z,9.5
2022-12-23T10:04:21.398Z,9.5
2022-12-23T10:05:21.322Z,9.5
2022-12-23T10:06:21.317Z,9.5
2022-12-23T10:07:21.322Z,9.5
2022-12-23T10:08:21.316Z,9.5
2022-12-23T10:09:21.321Z,9.5
2022-12-23T10:10:21.322Z,9.5
2022-12-23T10:11:21.325Z,9.5
2022-12-23T10:12:27.361Z,9.5
2022-12-23T10:13:21.319Z,9.5
2022-12-23T10:14:21.328Z,9.5
2022-12-23T10:15:21.318Z,9.5
2022-12-23T10:16:21.509Z,9.5
2022-12-23T10:17:21.440Z,9.5
2022-12-23T10:18:21.317Z,9.6
2022-12-23T10:19:21.325Z,9.6
2022-12-23T10:20:21.311Z,9.6
2022-12-23T10:21:21.314Z,9.6
2022-12-23T10:22:21.317Z,9.6
2022-12-23T10:23:21.319Z,9.6
2022-12-23T10:24:21.327Z,9.6
2022-12-23T10:25:21.316Z,9.6
2022-12-23T10:26:21.316Z,9.6
2022-12-23T10:27:21.316Z,9.6
2022-12-23T10:28:21.352Z,9.6
2022-12-23T10:29:21.328Z,9.6
2022-12-23T10:30:42.328Z,9.6
2022-12-23T10:31:39.629Z,9.7
2022-12-23T10:32:21.355Z,9.7
2022-12-23T10:33:21.313Z,9.7
2022-12-23T10:34:21.327Z,9.7
2022-12-23T10:35:21.355Z,9.7
2022-12-23T10:36:21.646Z,9.7
2022-12-23T10:37:21.319Z,9.7
2022-12-23T10:38:21.328Z,9.7
2022-12-23T10:39:21.315Z,9.7
2022-12-23T10:40:21.321Z,9.7
2022-12-23T10:41:21.312Z,9.7
2022-12-23T10:42:21.328Z,9.7
2022-12-23T10:43:21.323Z,9.7
2022-12-23T10:44:21.322Z,9.7
2022-12-23T10:45:21.323Z,9.7
2022-12-23T10:46:21.433Z,9.8
2022-12-23T10:47:21.530Z,9.7
2022-12-23T10:48:21.323Z,9.8
2022-12-23T10:49:21.327Z,9.8
2022-12-23T10:50:21.319Z,9.8
2022-12-23T10:51:21.316Z,9.8
2022-12-23T10:52:21.318Z,9.8
2022-12-23T10:53:21.316Z,9.8
2022-12-23T10:54:21.343Z,9.8
2022-12-23T10:55:21.343Z,9.8
2022-12-23T10:56:21.321Z,9.8
2022-12-23T10:57:21.326Z,9.8
2022-12-23T10:58:21.328Z,9.8
2022-12-23T10:59:21.502Z,9.8
2022-12-23T11:00:21.329Z,9.8
2022-12-23T11:01:26.391Z,9.8
2022-12-23T11:02:21.704Z,9.8
2022-12-23T11:03:21.521Z,9.8
2022-12-23T11:04:21.592Z,9.8
2022-12-23T11:05:21.458Z,9.8
2022-12-23T11:06:21.323Z,9.8
2022-12-23T11:08:21.316Z,9.8
2022-12-23T11:09:21.321Z,9.8
2022-12-23T11:10:21.318Z,9.8
2022-12-23T11:11:21.322Z,9.8
2022-12-23T11:12:21.322Z,9.8
2022-12-23T11:13:21.323Z,9.8
2022-12-23T11:14:21.499Z,9.8
2022-12-23T11:15:21.320Z,9.8
2022-12-23T11:16:21.525Z,9.8
2022-12-23T11:17:21.322Z,9.8
2022-12-23T11:18:21.313Z,9.8
2022-12-23T11:19:21.322Z,9.8
2022-12-23T11:20:21.313Z,9.8
2022-12-23T11:21:21.321Z,9.8
2022-12-23T11:22:21.332Z,9.8
2022-12-23T11:23:21.313Z,9.8
2022-12-23T11:24:21.322Z,9.8
2022-12-23T11:25:21.321Z,9.8
2022-12-23T11:26:21.316Z,9.8
2022-12-23T11:27:21.495Z,9.8
2022-12-23T11:28:21.313Z,9.8
2022-12-23T11:29:21.315Z,9.8
2022-12-23T11:30:21.323Z,9.8
2022-12-23T11:31:21.326Z,9.8
2022-12-23T11:32:21.315Z,9.8
2022-12-23T11:33:21.331Z,9.8
2022-12-23T11:34:21.314Z,9.8
2022-12-23T11:35:21.505Z,9.8
2022-12-23T11:36:22.648Z,9.8
2022-12-23T11:37:21.319Z,9.8
2022-12-23T11:38:21.341Z,9.8
2022-12-23T11:39:21.558Z,9.8
2022-12-23T11:40:21.740Z,9.8
2022-12-23T11:41:22.076Z,9.8
2022-12-23T11:42:21.592Z,9.8
2022-12-23T11:43:21.319Z,9.8
2022-12-23T11:44:21.645Z,9.8
2022-12-23T11:45:21.380Z,9.8
2022-12-23T11:46:21.696Z,9.8
2022-12-23T11:47:21.319Z,9.8
2022-12-23T11:48:21.322Z,9.8
2022-12-23T11:49:21.557Z,9.8
2022-12-23T11:50:21.318Z,9.8
2022-12-23T11:51:21.315Z,9.8
2022-12-23T11:52:21.335Z,9.8
2022-12-23T11:53:21.318Z,9.8
2022-12-23T11:54:21.323Z,9.8
2022-12-23T11:55:21.525Z,9.8
2022-12-23T11:56:21.326Z,9.8
2022-12-23T11:57:21.345Z,9.8
2022-12-23T11:58:21.368Z,9.8
2022-12-23T11:59:21.320Z,9.8
2022-12-23T12:00:21.329Z,9.8
2022-12-23T12:01:21.336Z,9.8
2022-12-23T12:02:21.437Z,9.8
2022-12-23T12:03:21.399Z,9.8
2022-12-23T12:04:21.328Z,9.8
2022-12-23T12:05:21.344Z,9.8
2022-12-23T12:06:21.322Z,9.8
2022-12-23T12:07:21.324Z,9.8
2022-12-23T12:08:21.397Z,9.8
2022-12-23T12:09:21.333Z,9.8
2022-12-23T12:10:21.340Z,9.8
2022-12-23T12:11:21.325Z,9.8
2022-12-23T12:12:21.330Z,9.8
2022-12-23T12:13:21.321Z,9.8
2022-12-23T12:14:21.330Z,9.8
2022-12-23T12:15:21.337Z,9.8
2022-12-23T12:16:21.412Z,9.8
2022-12-23T12:17:21.404Z,9.8
2022-12-23T12:18:21.333Z,9.8
2022-12-23T12:19:21.327Z,9.8
2022-12-23T12:20:21.325Z,9.8
2022-12-23T12:21:21.340Z,9.8
2022-12-23T12:22:21.324Z,9.8
2022-12-23T12:23:21.325Z,9.8
2022-12-23T12:24:21.421Z,9.8
2022-12-23T12:25:21.340Z,9.8
2022-12-23T12:26:21.340Z,9.8
2022-12-23T12:27:21.318Z,9.8
2022-12-23T12:28:21.324Z,9.8
2022-12-23T12:29:21.317Z,9.8
2022-12-23T12:30:21.321Z,9.8
2022-12-23T12:31:21.385Z,9.8
2022-12-23T12:32:21.319Z,9.8
2022-12-23T12:33:21.321Z,9.8
2022-12-23T12:34:21.355Z,9.8
2022-12-23T12:35:21.354Z,9.8
2022-12-23T12:36:21.395Z,9.8
2022-12-23T12:37:21.326Z,9.8
2022-12-23T12:38:21.323Z,9.8
2022-12-23T12:39:21.325Z,9.8
2022-12-23T12:40:21.351Z,9.8
2022-12-23T12:41:21.321Z,9.8
2022-12-23T12:42:21.325Z,9.8
2022-12-23T12:43:21.318Z,9.8
2022-12-23T12:44:21.322Z,9.8
2022-12-23T12:45:21.333Z,9.8
2022-12-23T12:46:21.359Z,9.8
2022-12-23T12:47:45.081Z,9.8
2022-12-23T12:48:21.324Z,9.8
2022-12-23T12:49:21.424Z,9.8
2022-12-23T12:50:21.748Z,9.8
2022-12-23T12:51:21.327Z,9.8
2022-12-23T12:52:21.612Z,9.8
2022-12-23T12:53:21.407Z,9.8
2022-12-23T12:54:21.316Z,9.8
2022-12-23T12:55:21.337Z,9.8
2022-12-23T12:56:21.324Z,9.8
2022-12-23T12:57:21.352Z,9.8
2022-12-23T12:58:21.346Z,9.8
2022-12-23T12:59:21.336Z,9.8
2022-12-23T13:00:21.318Z,9.8
2022-12-23T13:01:21.365Z,9.8
2022-12-23T13:02:21.396Z,9.8
2022-12-23T13:03:21.328Z,9.8
2022-12-23T13:04:21.330Z,9.8
2022-12-23T13:05:21.324Z,9.8
2022-12-23T13:06:21.319Z,9.8
2022-12-23T13:07:21.339Z,9.7
2022-12-23T13:08:21.318Z,9.7
2022-12-23T13:09:21.356Z,9.7
2022-12-23T13:10:21.322Z,9.7
2022-12-23T13:11:24.874Z,9.7
2022-12-23T13:12:21.367Z,9.7
2022-12-23T13:13:21.342Z,9.7
2022-12-23T13:14:21.564Z,9.7
2022-12-23T13:15:21.409Z,9.7
2022-12-23T13:16:21.386Z,9.7
2022-12-23T13:17:21.378Z,9.7
2022-12-23T13:18:21.431Z,9.7
2022-12-23T13:19:21.322Z,9.6
2022-12-23T13:20:21.479Z,9.6
2022-12-23T13:21:21.328Z,9.6
2022-12-23T13:22:21.324Z,9.6
2022-12-23T13:23:42.692Z,9.6
2022-12-23T13:24:21.322Z,9.6
2022-12-23T13:25:21.342Z,9.6
2022-12-23T13:26:21.313Z,9.6
2022-12-23T13:27:21.323Z,9.6
2022-12-23T13:28:21.328Z,9.6
2022-12-23T13:29:21.564Z,9.6
2022-12-23T13:30:21.338Z,9.5
2022-12-23T13:31:21.354Z,9.5
2022-12-23T13:32:21.327Z,9.5
2022-12-23T13:33:21.333Z,9.5
2022-12-23T13:34:21.409Z,9.5
2022-12-23T13:35:21.315Z,9.5
2022-12-23T13:36:21.331Z,9.5
2022-12-23T13:37:21.325Z,9.5
2022-12-23T13:38:21.343Z,9.4
2022-12-23T13:39:21.318Z,9.4
2022-12-23T13:40:21.318Z,9.4
2022-12-23T13:41:21.313Z,9.4
2022-12-23T13:42:21.314Z,9.4
2022-12-23T13:43:21.326Z,9.4
2022-12-23T13:44:21.323Z,9.4
2022-12-23T13:45:21.325Z,9.4
2022-12-23T13:46:21.431Z,9.4
2022-12-23T13:47:21.337Z,9.4
2022-12-23T13:48:21.345Z,9.4